createdAt,value
2022-11-30T00:01:48.656Z,9.50
2022-11-30T00:04:36.281Z,9.40
2022-11-30T00:07:23.982Z,9.50
2022-11-30T00:10:11.233Z,9.40
2022-11-30T00:12:58.267Z,9.50
2022-11-30T00:15:46.060Z,9.40
2022-11-30T00:18:34.063Z,9.50
2022-11-30T00:21:21.137Z,9.60
2022-11-30T00:24:08.422Z,9.50
2022-11-30T00:26:55.568Z,9.50
2022-11-30T00:29:43.027Z,9.60
2022-11-30T00:32:30.451Z,9.40
2022-11-30T00:35:18.072Z,9.40
2022-11-30T00:38:05.103Z,9.50
2022-11-30T00:40:52.229Z,9.60
2022-11-30T00:43:39.783Z,9.60
2022-11-30T00:46:27.760Z,9.60
2022-11-30T00:49:15.566Z,9.60
2022-11-30T00:52:03.422Z,9.60
2022-11-30T00:54:50.905Z,9.50
2022-11-30T00:57:38.113Z,9.50
2022-11-30T01:00:26.206Z,9.60
2022-11-30T01:03:14.212Z,9.60
2022-11-30T01:06:04.907Z,9.60
2022-11-30T01:08:52.833Z,9.60
2022-11-30T01:11:39.851Z,9.60
2022-11-30T01:14:27.438Z,9.40
2022-11-30T01:17:14.503Z,9.40
2022-11-30T01:20:01.910Z,9.40
2022-11-30T01:22:49.435Z,9.40
2022-11-30T01:31:49.751Z,9.30
2022-11-30T01:34:51.604Z,9.30
2022-11-30T01:37:42.247Z,9.30
2022-11-30T01:44:08.578Z,9.40
2022-11-30T01:46:58.132Z,9.40
2022-11-30T01:49:50.365Z,9.40
2022-11-30T01:52:46.893Z,9.40
2022-11-30T01:55:36.277Z,9.40
2022-11-30T01:58:29.756Z,9.40
2022-11-30T02:01:17.358Z,9.50
2022-11-30T02:04:11.702Z,9.40
2022-11-30T02:07:04.523Z,9.50
2022-11-30T02:09:53.029Z,9.40
2022-11-30T02:12:50.413Z,9.50
2022-11-30T02:15:58.181Z,9.40
2022-11-30T02:19:01.516Z,9.40
2022-11-30T02:21:55.772Z,9.40
2022-11-30T02:24:55.794Z,9.30
2022-11-30T02:28:02.598Z,9.30
2022-11-30T02:30:52.322Z,9.40
2022-11-30T02:36:45.944Z,9.40
2022-11-30T02:45:06.720Z,9.20
2022-11-30T02:47:45.583Z,9.30
2022-11-30T02:50:33.291Z,9.50
2022-11-30T02:53:45.779Z,9.40
2022-11-30T02:56:38.989Z,9.40
2022-11-30T02:59:26.481Z,9.50
2022-11-30T03:05:42.688Z,9.30
2022-11-30T03:08:49.572Z,9.20
2022-11-30T03:11:43.366Z,9.20
2022-11-30T03:14:33.351Z,9.40
2022-11-30T03:17:42.564Z,9.30
2022-11-30T03:20:50.008Z,9.30
2022-11-30T03:23:38.372Z,9.30
2022-11-30T03:26:35.153Z,9.20
2022-11-30T03:29:29.672Z,9.30
2022-11-30T03:32:17.500Z,9.20
2022-11-30T03:35:05.309Z,9.20
2022-11-30T03:37:57.001Z,9.20
2022-11-30T03:40:45.151Z,9.10
2022-11-30T03:43:33.113Z,9.20
2022-11-30T03:46:27.852Z,9.10
2022-11-30T03:49:15.576Z,9.00
2022-11-30T03:52:06.146Z,9.20
2022-11-30T03:54:54.387Z,9.20
2022-11-30T03:58:00.544Z,9.10
2022-11-30T04:00:53.337Z,9.20
2022-11-30T04:04:06.528Z,9.10
2022-11-30T04:07:04.292Z,9.10
2022-11-30T04:09:53.987Z,9.20
2022-11-30T04:12:44.478Z,9.00
2022-11-30T04:15:43.020Z,9.10
2022-11-30T04:18:38.798Z,9.20
2022-11-30T04:21:26.275Z,9.20
2022-11-30T04:24:16.806Z,9.30
2022-11-30T04:27:12.987Z,9.20
2022-11-30T04:30:00.537Z,9.20
2022-11-30T04:32:50.546Z,9.10
2022-11-30T04:35:46.086Z,9.20
2022-11-30T04:38:39.123Z,9.10
2022-11-30T04:41:26.366Z,9.00
2022-11-30T04:44:19.299Z,9.10
2022-11-30T04:47:06.775Z,9.10
2022-11-30T04:49:54.155Z,9.10
2022-11-30T04:52:44.347Z,9.00
2022-11-30T04:55:34.043Z,9.10
2022-11-30T04:58:21.555Z,9.00
2022-11-30T05:01:12.880Z,8.90
2022-11-30T05:04:00.503Z,9.00
2022-11-30T05:06:50.307Z,8.90
2022-11-30T05:09:44.179Z,9.00
2022-11-30T05:12:34.101Z,9.00
2022-11-30T05:15:21.873Z,9.10
2022-11-30T05:18:18.781Z,9.00
2022-11-30T05:21:09.624Z,9.10
2022-11-30T05:24:00.082Z,9.20
2022-11-30T05:26:48.896Z,9.10
2022-11-30T05:29:37.940Z,9.00
2022-11-30T05:32:30.654Z,9.00
2022-11-30T05:35:19.042Z,9.00
2022-11-30T05:38:09.908Z,9.00
2022-11-30T05:41:02.858Z,9.00
2022-11-30T05:43:53.673Z,9.00
2022-11-30T05:46:42.367Z,9.10
2022-11-30T05:49:29.873Z,9.20
2022-11-30T05:52:17.737Z,9.10
2022-11-30T05:55:06.609Z,9.00
2022-11-30T05:57:57.118Z,9.00
2022-11-30T06:00:44.445Z,9.00
2022-11-30T06:03:35.078Z,9.00
2022-11-30T06:06:25.420Z,9.10
2022-11-30T06:09:15.589Z,9.00
2022-11-30T06:12:04.095Z,9.00
2022-11-30T06:14:54.325Z,9.00
2022-11-30T06:17:47.257Z,9.00
2022-11-30T06:20:37.456Z,9.00
2022-11-30T06:23:27.632Z,9.20
2022-11-30T06:26:21.953Z,9.00
2022-11-30T06:29:12.921Z,9.00
2022-11-30T06:32:00.647Z,9.00
2022-11-30T06:40:05.474Z,9.00
2022-11-30T06:48:38.676Z,9.00
2022-11-30T06:51:26.372Z,8.80
2022-11-30T06:54:19.924Z,8.90
2022-11-30T06:57:10.041Z,8.90
2022-11-30T07:00:20.739Z,8.90
2022-11-30T07:03:24.113Z,9.00
2022-11-30T07:06:14.973Z,9.20
2022-11-30T07:09:02.958Z,9.20
2022-11-30T07:11:50.916Z,9.10
2022-11-30T07:14:40.885Z,9.10
2022-11-30T07:17:30.888Z,9.10
2022-11-30T07:21:39.681Z,8.90
2022-11-30T07:33:31.653Z,8.80
2022-11-30T07:36:22.012Z,8.70
2022-11-30T07:39:09.668Z,8.70
2022-11-30T07:41:56.767Z,8.80
2022-11-30T07:44:53.961Z,8.80
2022-11-30T07:47:45.914Z,8.80
2022-11-30T07:50:35.775Z,8.80
2022-11-30T07:53:28.374Z,8.90
2022-11-30T07:56:22.708Z,8.90
2022-11-30T07:59:30.655Z,8.80
2022-11-30T08:02:19.892Z,8.80
2022-11-30T08:05:11.275Z,8.80
2022-11-30T08:07:59.249Z,8.90
2022-11-30T08:10:58.803Z,8.80
2022-11-30T08:13:47.239Z,9.00
2022-11-30T08:16:37.702Z,8.90
2022-11-30T08:19:33.985Z,8.90
2022-11-30T08:22:22.038Z,8.90
2022-11-30T08:25:09.449Z,9.00
2022-11-30T08:31:11.277Z,9.00
2022-11-30T08:33:59.846Z,9.10
2022-11-30T08:36:51.721Z,9.10
2022-11-30T08:39:39.905Z,9.10
2022-11-30T08:42:28.351Z,9.20
2022-11-30T08:45:16.210Z,9.20
2022-11-30T08:48:04.464Z,9.30
2022-11-30T08:50:53.102Z,9.30
2022-11-30T08:53:41.369Z,9.50
2022-11-30T08:56:30.191Z,9.60
2022-11-30T08:59:17.824Z,9.60
2022-11-30T09:02:06.037Z,9.60
2022-11-30T09:04:54.041Z,9.70
2022-11-30T09:07:41.659Z,9.80
2022-11-30T09:10:29.303Z,9.60
2022-11-30T09:13:23.139Z,9.80
2022-11-30T09:16:13.252Z,9.70
2022-11-30T09:19:03.724Z,9.60
2022-11-30T09:22:00.669Z,9.60
2022-11-30T09:31:41.443Z,9.80
2022-11-30T09:34:51.740Z,9.90
2022-11-30T09:37:40.286Z,9.90
2022-11-30T09:44:49.161Z,10.00
2022-11-30T09:47:40.090Z,10.00
2022-11-30T09:50:29.704Z,10.10
2022-11-30T09:53:28.912Z,10.20
2022-11-30T09:56:30.270Z,10.20
2022-11-30T09:59:22.170Z,10.10
2022-11-30T10:02:19.121Z,10.20
2022-11-30T10:05:13.973Z,10.20
2022-11-30T10:08:29.422Z,10.20
2022-11-30T10:12:03.740Z,10.10
2022-11-30T10:15:12.706Z,10.10
2022-11-30T10:18:45.220Z,10.00
2022-11-30T10:22:41.356Z,10.20
2022-11-30T10:25:52.824Z,10.50
2022-11-30T10:28:59.111Z,10.40
2022-11-30T10:31:58.518Z,10.40
2022-11-30T10:34:55.869Z,10.40
2022-11-30T10:37:44.394Z,10.40
2022-11-30T10:40:38.586Z,10.40
2022-11-30T10:43:35.470Z,10.60
2022-11-30T10:46:33.209Z,10.90
2022-11-30T10:49:23.866Z,11.00
2022-11-30T10:52:23.011Z,12.60
2022-11-30T10:55:20.252Z,14.90
2022-11-30T10:58:13.291Z,15.30
2022-11-30T11:01:03.313Z,16.30
2022-11-30T11:04:24.283Z,16.70
2022-11-30T11:07:24.727Z,16.40
2022-11-30T11:10:49.980Z,15.80
2022-11-30T11:13:44.948Z,13.70
2022-11-30T11:16:48.592Z,12.20
2022-11-30T11:19:40.867Z,11.50
2022-11-30T11:22:32.434Z,11.40
2022-11-30T11:25:25.926Z,11.20
2022-11-30T11:28:19.375Z,11.20
2022-11-30T11:31:36.916Z,10.80
2022-11-30T11:34:32.913Z,10.70
2022-11-30T11:37:29.774Z,10.80
2022-11-30T11:40:26.105Z,10.80
2022-11-30T11:43:25.339Z,10.80
2022-11-30T11:46:15.159Z,11.00
2022-11-30T11:49:23.903Z,10.90
2022-11-30T11:52:40.118Z,10.50
2022-11-30T11:55:27.889Z,10.60
2022-11-30T11:58:20.591Z,11.00
2022-11-30T12:01:39.323Z,11.00
2022-11-30T12:04:34.896Z,11.00
2022-11-30T12:07:56.133Z,11.10
2022-11-30T12:14:14.778Z,11.80
2022-11-30T12:21:08.886Z,11.20
2022-11-30T12:24:10.887Z,11.70
2022-11-30T12:27:10.875Z,11.90
2022-11-30T12:30:07.522Z,12.20
2022-11-30T12:36:25.272Z,11.60
2022-11-30T12:51:16.239Z,17.30
2022-11-30T12:55:09.155Z,13.60
2022-11-30T12:58:10.397Z,11.80
2022-11-30T13:01:47.518Z,14.80
2022-11-30T13:19:51.261Z,12.60
2022-11-30T13:22:42.203Z,12.10
2022-11-30T13:26:07.762Z,11.50
2022-11-30T13:29:15.227Z,11.50
2022-11-30T13:35:30.411Z,11.00
2022-11-30T13:50:36.483Z,10.50
2022-11-30T13:53:26.955Z,10.60
2022-11-30T13:56:17.596Z,10.60
2022-11-30T13:59:23.650Z,10.40
2022-11-30T14:02:30.300Z,10.30
2022-11-30T14:05:17.951Z,10.50
2022-11-30T14:08:05.966Z,10.30
2022-11-30T14:35:41.230Z,9.90
2022-11-30T14:38:35.181Z,10.00
2022-11-30T14:41:38.923Z,9.90
2022-11-30T14:44:52.377Z,9.80
2022-11-30T14:50:53.376Z,9.60
2022-11-30T14:54:03.608Z,9.60
2022-11-30T15:00:35.987Z,9.50
2022-11-30T15:06:29.533Z,9.40
2022-11-30T15:09:44.583Z,9.30
2022-11-30T15:12:53.338Z,9.10
2022-11-30T15:15:49.935Z,9.00
2022-11-30T15:18:40.728Z,9.00
2022-11-30T15:21:30.154Z,9.00
2022-11-30T15:24:20.548Z,8.80
2022-11-30T15:27:18.712Z,8.70
2022-11-30T15:30:06.232Z,8.40
2022-11-30T15:32:56.093Z,8.80
2022-11-30T15:36:13.653Z,8.40
2022-11-30T15:38:53.621Z,8.30
2022-11-30T15:50:57.088Z,8.30
2022-11-30T15:53:48.553Z,8.20
2022-11-30T15:56:36.635Z,8.40
2022-11-30T15:59:25.505Z,8.30
2022-11-30T16:02:31.304Z,8.20
2022-11-30T16:05:19.694Z,8.20
2022-11-30T16:08:17.978Z,8.10
2022-11-30T16:11:08.028Z,8.20
2022-11-30T16:13:55.302Z,8.20
2022-11-30T16:35:02.138Z,8.20
2022-11-30T16:37:49.690Z,8.10
2022-11-30T16:40:39.276Z,8.20
2022-11-30T16:43:26.892Z,8.10
2022-11-30T16:46:40.493Z,8.30
2022-11-30T16:52:24.349Z,8.20
2022-11-30T16:55:16.476Z,8.10
2022-11-30T16:58:04.152Z,8.10
2022-11-30T17:00:51.422Z,8.10
2022-11-30T17:03:39.989Z,8.00
2022-11-30T17:06:27.663Z,8.10
2022-11-30T17:09:15.346Z,8.00
2022-11-30T17:12:03.091Z,8.00
2022-11-30T17:14:51.369Z,7.90
2022-11-30T17:17:39.220Z,8.00
2022-11-30T17:20:27.962Z,7.90
2022-11-30T17:23:15.893Z,8.00
2022-11-30T17:26:03.325Z,8.00
2022-11-30T17:28:51.019Z,8.00
2022-11-30T17:31:38.809Z,7.90
2022-11-30T17:34:28.837Z,7.80
2022-11-30T17:37:17.568Z,7.70
2022-11-30T17:40:06.965Z,7.70
2022-11-30T17:42:54.547Z,7.90
2022-11-30T17:45:42.097Z,7.90
2022-11-30T17:48:30.909Z,7.80
2022-11-30T17:51:18.574Z,8.00
2022-11-30T17:54:06.368Z,8.10
2022-11-30T17:56:55.788Z,8.00
2022-11-30T17:59:43.174Z,8.10
2022-11-30T18:02:30.661Z,8.10
2022-11-30T18:05:19.055Z,8.00
2022-11-30T18:08:06.518Z,8.20
2022-11-30T18:10:55.485Z,8.20
2022-11-30T18:13:42.571Z,8.10
2022-11-30T18:16:31.306Z,8.10
2022-11-30T18:19:18.407Z,8.10
2022-11-30T18:22:05.989Z,8.00
2022-11-30T18:24:54.003Z,8.10
2022-11-30T18:27:41.621Z,8.10
2022-11-30T18:30:29.162Z,8.10
2022-11-30T18:33:17.234Z,7.90
2022-11-30T18:36:07.444Z,7.90
2022-11-30T18:38:55.018Z,8.10
2022-11-30T18:41:42.674Z,8.00
2022-11-30T18:44:30.418Z,8.10
2022-11-30T18:47:17.572Z,8.00
2022-11-30T18:50:05.337Z,8.20
2022-11-30T18:52:52.549Z,8.10
2022-11-30T18:55:40.015Z,7.90
2022-11-30T18:58:27.029Z,8.00
2022-11-30T19:01:16.372Z,8.10
2022-11-30T19:04:08.020Z,8.10
2022-11-30T19:06:55.834Z,8.10
2022-11-30T19:09:43.307Z,8.10
2022-11-30T19:12:31.094Z,8.00
2022-11-30T19:15:18.286Z,8.10
2022-11-30T19:18:06.214Z,8.10
2022-11-30T19:20:53.261Z,7.90
2022-11-30T19:23:40.575Z,8.00
2022-11-30T19:26:28.604Z,8.10
2022-11-30T19:29:18.095Z,7.90
2022-11-30T19:32:05.450Z,7.90
2022-11-30T19:34:53.345Z,8.00
2022-11-30T19:41:07.372Z,8.00
2022-11-30T19:44:01.243Z,8.00
2022-11-30T19:46:50.980Z,8.00
2022-11-30T19:49:38.693Z,8.10
2022-11-30T19:52:26.127Z,8.10
2022-11-30T19:55:13.743Z,8.10
2022-11-30T19:58:01.176Z,8.00
2022-11-30T20:00:49.687Z,8.00
2022-11-30T20:03:37.195Z,8.10
2022-11-30T20:06:26.065Z,7.90
2022-11-30T20:09:13.171Z,7.90
2022-11-30T20:12:21.664Z,8.00
2022-11-30T20:15:08.980Z,8.00
2022-11-30T20:17:56.056Z,8.10
2022-11-30T20:20:43.848Z,7.90
2022-11-30T20:23:31.067Z,7.90
2022-11-30T20:26:20.489Z,8.10
2022-11-30T20:29:11.500Z,8.10
2022-11-30T20:31:59.084Z,7.90
2022-11-30T20:34:46.636Z,7.90
2022-11-30T20:37:34.162Z,7.90
2022-11-30T20:40:21.910Z,8.00
2022-11-30T20:43:18.873Z,8.10
2022-11-30T20:46:16.682Z,8.00
2022-11-30T20:49:09.589Z,8.00
2022-11-30T20:52:03.946Z,8.00
2022-11-30T20:54:53.467Z,8.00
2022-11-30T20:57:50.524Z,7.90
2022-11-30T21:00:42.460Z,7.90
2022-11-30T21:03:30.688Z,7.80
2022-11-30T21:06:27.942Z,7.80
2022-11-30T21:09:19.776Z,7.70
2022-11-30T21:12:10.747Z,7.60
2022-11-30T21:14:58.395Z,7.70
2022-11-30T21:17:49.728Z,7.60
2022-11-30T21:21:09.505Z,7.70
2022-11-30T21:24:00.535Z,7.80
2022-11-30T21:27:02.179Z,7.90
2022-11-30T21:30:10.687Z,7.70
2022-11-30T21:33:16.962Z,7.60
2022-11-30T21:36:24.719Z,7.70
2022-11-30T21:39:15.835Z,7.60
2022-11-30T21:42:23.275Z,7.40
2022-11-30T21:45:40.605Z,7.60
2022-11-30T21:48:35.505Z,7.60
2022-11-30T21:51:58.418Z,7.40
2022-11-30T21:55:01.427Z,7.40
2022-11-30T21:58:06.402Z,7.40
2022-11-30T22:01:06.995Z,7.40
2022-11-30T22:04:05.087Z,7.30
2022-11-30T22:06:52.886Z,7.30
2022-11-30T22:09:44.299Z,7.40
2022-11-30T22:12:36.488Z,7.40
2022-11-30T22:15:34.806Z,7.50
2022-11-30T22:18:36.166Z,7.40
2022-11-30T22:21:33.131Z,7.20
2022-11-30T22:24:37.562Z,7.20
2022-11-30T22:27:33.979Z,7.20
2022-11-30T22:30:24.385Z,7.40
2022-11-30T22:33:33.191Z,7.30
2022-11-30T22:36:25.347Z,7.20
2022-11-30T22:39:25.080Z,7.30
2022-11-30T22:42:20.625Z,7.20
2022-11-30T22:45:11.610Z,7.20
2022-11-30T22:47:59.501Z,7.20
2022-11-30T22:51:08.348Z,7.20
2022-11-30T22:53:56.649Z,7.20
2022-11-30T22:56:48.719Z,7.30
2022-11-30T22:59:38.936Z,7.30
2022-11-30T23:02:28.748Z,7.20
2022-11-30T23:05:16.214Z,7.20
2022-11-30T23:08:03.978Z,7.00
2022-11-30T23:10:57.050Z,7.20
2022-11-30T23:13:47.231Z,7.10
2022-11-30T23:16:41.228Z,7.20
2022-11-30T23:19:34.109Z,7.10
2022-11-30T23:22:31.904Z,7.10
2022-11-30T23:25:40.228Z,7.10
2022-11-30T23:28:32.665Z,6.90
2022-11-30T23:31:34.145Z,7.10
2022-11-30T23:34:29.013Z,7.00
2022-11-30T23:37:16.754Z,6.90
2022-11-30T23:40:13.551Z,6.90
2022-11-30T23:48:30.127Z,7.10
2022-11-30T23:52:11.313Z,7.10
2022-11-30T23:54:18.904Z,6.80
2022-11-30T23:57:06.320Z,7.00
2022-11-30T23:59:56.675Z,7.00
